Time;durP1;ratioP1;P1;durP2;ratioP2;P2;SDS_P1;SDS_P2;PMS_P1;PMS_P2;Temp;Humidity;BMP_temperature;BMP_pressure;BME280_temperature;BME280_humidity;BME280_pressure;Samples;Min_cycle;Max_cycle;Signal;HPM_P1;HPM_P2
2023/04/12 00:01:28;;;;;;;6.87;6.30;;;;;;;12.12;63.59;98413.72;5072622;28;20201;-69
2023/04/12 00:09:35;;;;;;;6.80;6.37;;;;;;;11.99;64.10;98403.31;5072620;28;20193;-67
2023/04/12 00:12:05;;;;;;;7.17;6.60;;;;;;;12.03;63.37;98398.31;5073114;28;20211;-66
2023/04/12 00:14:43;;;;;;;7.50;6.97;;;;;;;12.04;63.42;98397.31;5071984;28;20230;-66
2023/04/12 00:17:11;;;;;;;6.93;6.43;;;;;;;12.05;63.20;98402.38;5072450;28;20220;-67
2023/04/12 00:19:46;;;;;;;6.47;6.13;;;;;;;12.09;63.24;98400.06;5071468;28;20267;-66
2023/04/12 00:22:23;;;;;;;7.07;6.57;;;;;;;12.07;63.85;98410.13;5073513;28;20206;-67
2023/04/12 00:25:00;;;;;;;6.17;5.80;;;;;;;12.04;63.50;98405.28;5068005;28;20200;-66
2023/04/12 00:27:28;;;;;;;6.87;6.47;;;;;;;12.05;63.28;98402.38;5071105;28;20189;-67
2023/04/12 00:29:57;;;;;;;8.43;6.60;;;;;;;12.08;63.24;98401.13;5071703;28;20240;-66
2023/04/12 00:32:41;;;;;;;6.43;6.13;;;;;;;11.95;63.58;98399.50;5072619;28;20198;-66
2023/04/12 00:38:09;;;;;;;6.07;5.57;;;;;;;11.98;63.68;98401.69;5071369;28;20235;-67
2023/04/12 00:40:40;;;;;;;6.73;6.23;;;;;;;11.95;63.64;98394.16;5071478;28;20303;-67
2023/04/12 00:43:17;;;;;;;5.93;5.53;;;;;;;11.90;63.86;98393.22;5072677;28;20185;-67
2023/04/12 00:45:48;;;;;;;6.23;5.83;;;;;;;11.82;64.25;98386.41;5072192;28;20208;-67
2023/04/12 00:48:23;;;;;;;6.17;5.77;;;;;;;11.71;64.78;98384.56;5072097;28;20185;-67
2023/04/12 00:50:54;;;;;;;5.90;5.60;;;;;;;11.78;64.66;98385.25;5071890;28;20224;-67
2023/04/12 00:53:45;;;;;;;6.00;5.40;;;;;;;11.78;64.61;98379.94;5072160;28;20232;-66
2023/04/12 00:56:15;;;;;;;6.17;5.77;;;;;;;11.76;64.46;98376.69;5072156;28;20204;-67
2023/04/12 00:58:49;;;;;;;6.63;6.23;;;;;;;11.84;64.48;98372.88;5071529;28;20284;-66
2023/04/12 01:01:20;;;;;;;6.20;5.80;;;;;;;11.83;64.37;98369.41;5070756;28;20708;-66
2023/04/12 01:03:52;;;;;;;6.20;5.80;;;;;;;11.69;64.88;98370.69;5071809;28;20267;-67
2023/04/12 01:06:43;;;;;;;7.93;6.53;;;;;;;11.70;65.15;98374.13;5072166;28;20196;-66
2023/04/12 01:09:23;;;;;;;6.47;6.07;;;;;;;11.69;65.13;98367.19;5072089;28;20200;-67
2023/04/12 01:12:02;;;;;;;6.67;6.07;;;;;;;11.76;65.06;98370.56;5071039;28;20221;-66
2023/04/12 01:14:43;;;;;;;6.63;6.07;;;;;;;11.83;64.82;98369.41;5070851;28;20200;-67
2023/04/12 01:17:23;;;;;;;6.60;6.10;;;;;;;11.76;65.12;98360.72;5071868;28;20198;-67
2023/04/12 01:19:58;;;;;;;6.73;6.27;;;;;;;11.67;65.64;98356.78;5071891;28;20186;-67
2023/04/12 01:22:38;;;;;;;7.10;6.40;;;;;;;11.69;65.51;98353.91;5071872;28;20242;-67
2023/04/12 01:25:42;;;;;;;7.10;6.70;;;;;;;11.77;65.41;98351.72;5072108;28;20196;-67
2023/04/12 01:28:17;;;;;;;5.83;5.43;;;;;;;11.70;65.63;98340.38;5072105;28;20284;-67
2023/04/12 01:30:50;;;;;;;7.07;6.47;;;;;;;11.69;66.00;98332.63;5070167;28;20238;-67
2023/04/12 01:33:18;;;;;;;6.50;6.07;;;;;;;11.67;65.71;98330.19;5054739;28;20205;-67
2023/04/12 01:35:50;;;;;;;6.30;5.77;;;;;;;11.66;66.08;98333.91;5072011;28;20650;-67
2023/04/12 01:38:17;;;;;;;6.53;6.10;;;;;;;11.81;65.53;98320.97;5072384;28;20203;-67
2023/04/12 01:40:55;;;;;;;6.07;5.57;;;;;;;11.85;65.40;98322.09;5071854;28;20197;-66
2023/04/12 01:43:29;;;;;;;6.47;5.93;;;;;;;11.92;65.08;98333.41;5071677;28;20185;-66
2023/04/12 01:45:57;;;;;;;6.47;5.97;;;;;;;11.94;64.89;98326.03;5071916;28;20191;-66
2023/04/12 01:48:38;;;;;;;5.90;5.50;;;;;;;11.91;64.95;98336.31;5036672;28;20219;-66
2023/04/12 01:56:51;;;;;;;6.83;6.30;;;;;;;11.87;65.64;98340.47;5072252;28;20572;-67
2023/04/12 01:59:28;;;;;;;7.83;6.93;;;;;;;11.78;66.05;98345.34;5070402;28;20280;-66
2023/04/12 02:01:56;;;;;;;7.70;7.03;;;;;;;11.83;65.93;98344.63;5070395;28;20193;-66
2023/04/12 02:04:26;;;;;;;6.43;6.00;;;;;;;11.88;66.11;98337.59;5071688;28;20739;-66
2023/04/12 02:06:54;;;;;;;7.53;6.93;;;;;;;11.84;66.74;98341.75;5071212;28;20675;-66
2023/04/12 02:09:27;;;;;;;7.80;7.20;;;;;;;11.85;66.76;98347.91;5072925;28;20276;-66
2023/04/12 02:11:59;;;;;;;6.90;6.20;;;;;;;11.83;66.79;98340.16;5074355;28;20225;-66
2023/04/12 02:14:30;;;;;;;6.90;6.30;;;;;;;11.88;66.68;98342.91;5075395;28;20189;-67
2023/04/12 02:17:00;;;;;;;6.83;6.23;;;;;;;11.90;66.39;98351.47;5074239;28;20659;-67
2023/04/12 02:19:33;;;;;;;7.07;6.37;;;;;;;11.91;66.03;98350.44;5075589;28;20241;-66
2023/04/12 02:22:03;;;;;;;7.20;6.70;;;;;;;11.97;65.55;98336.19;5075269;28;20210;-66
2023/04/12 02:24:36;;;;;;;6.47;5.97;;;;;;;11.99;65.19;98339.44;5075146;28;20197;-66
2023/04/12 02:27:03;;;;;;;7.20;6.67;;;;;;;11.93;65.20;98340.38;5074724;28;20200;-66
2023/04/12 02:29:32;;;;;;;7.13;6.53;;;;;;;12.06;64.75;98345.47;5073778;28;20200;-66
2023/04/12 02:32:02;;;;;;;6.37;5.97;;;;;;;12.01;64.50;98340.00;5071592;28;20238;-67
2023/04/12 02:34:32;;;;;;;6.63;6.13;;;;;;;11.97;64.77;98335.41;5074965;28;20198;-66
2023/04/12 02:37:03;;;;;;;6.27;5.73;;;;;;;11.97;64.59;98330.06;5075004;28;20202;-66
2023/04/12 02:39:35;;;;;;;6.60;6.30;;;;;;;11.92;65.12;98333.41;5074410;28;20262;-66
2023/04/12 02:42:14;;;;;;;6.43;5.93;;;;;;;11.96;64.67;98331.91;5075073;28;20189;-67
2023/04/12 02:44:59;;;;;;;7.00;6.50;;;;;;;12.01;64.93;98329.34;5075066;28;20193;-67
2023/04/12 02:47:29;;;;;;;6.67;6.00;;;;;;;11.91;64.90;98331.00;5040743;28;20674;-66
2023/04/12 02:50:05;;;;;;;6.80;6.30;;;;;;;11.89;65.06;98327.75;5074980;28;20208;-68
2023/04/12 02:52:33;;;;;;;6.37;5.87;;;;;;;11.80;65.65;98319.31;5057465;28;20261;-66
2023/04/12 02:55:01;;;;;;;6.93;6.30;;;;;;;11.89;65.11;98322.44;5074469;28;20189;-67
2023/04/12 02:57:35;;;;;;;6.43;5.93;;;;;;;11.77;65.29;98314.47;5073035;28;20189;-66
2023/04/12 03:00:11;;;;;;;6.23;5.83;;;;;;;11.69;65.42;98316.66;5039376;28;20198;-66
2023/04/12 03:02:42;;;;;;;6.67;6.27;;;;;;;11.76;65.07;98318.16;5074966;28;20197;-66
2023/04/12 03:05:11;;;;;;;7.07;6.20;;;;;;;11.83;64.54;98318.84;5074621;28;20197;-66
2023/04/12 03:07:46;;;;;;;6.53;6.03;;;;;;;11.91;64.03;98318.50;5074455;28;20198;-66
2023/04/12 03:10:14;;;;;;;6.77;6.03;;;;;;;11.90;64.20;98314.22;5074400;28;20195;-66
2023/04/12 03:12:43;;;;;;;5.53;5.23;;;;;;;11.96;63.62;98318.59;5073116;28;20228;-66
2023/04/12 03:15:12;;;;;;;6.43;5.90;;;;;;;11.99;63.38;98318.16;5075001;28;20213;-67
2023/04/12 03:17:38;;;;;;;6.20;5.77;;;;;;;12.02;62.99;98323.00;5074300;28;20311;-67
2023/04/12 03:20:08;;;;;;;6.73;6.20;;;;;;;12.00;63.34;98319.75;5074079;28;20200;-68
2023/04/12 03:22:36;;;;;;;6.50;6.00;;;;;;;11.91;63.62;98315.84;5073888;28;20197;-68
2023/04/12 03:25:03;;;;;;;6.37;5.93;;;;;;;12.04;63.07;98323.56;5074048;28;20681;-68
2023/04/12 03:27:31;;;;;;;5.60;5.23;;;;;;;11.99;63.21;98323.47;5074420;28;20277;-68
2023/04/12 03:29:58;;;;;;;5.90;5.60;;;;;;;12.08;62.55;98337.25;5074639;28;20570;-68
2023/04/12 03:32:26;;;;;;;6.90;6.23;;;;;;;12.10;62.22;98335.16;5074489;28;20647;-68
2023/04/12 03:34:52;;;;;;;8.57;7.87;;;;;;;12.04;62.36;98336.88;5073995;28;20204;-67
2023/04/12 03:37:19;;;;;;;7.00;6.40;;;;;;;12.05;62.57;98333.16;5074614;28;20267;-68
2023/04/12 03:39:47;;;;;;;5.83;5.40;;;;;;;12.01;62.60;98331.22;5073958;28;20206;-68
2023/04/12 03:42:14;;;;;;;6.30;5.80;;;;;;;12.04;62.70;98342.22;5073889;28;20185;-68
2023/04/12 03:44:42;;;;;;;6.80;6.30;;;;;;;12.00;62.39;98334.94;5073762;28;20251;-67
2023/04/12 03:47:10;;;;;;;7.60;6.70;;;;;;;12.03;62.16;98335.28;5074169;28;20555;-67
2023/04/12 03:49:38;;;;;;;7.37;6.67;;;;;;;11.94;62.35;98326.03;5073792;28;20195;-67
2023/04/12 03:52:06;;;;;;;6.80;6.30;;;;;;;11.85;62.65;98322.09;5074134;28;20232;-67
2023/04/12 03:54:33;;;;;;;6.17;5.83;;;;;;;11.80;63.01;98319.31;5073327;28;20198;-67
2023/04/12 03:57:00;;;;;;;7.20;6.60;;;;;;;11.76;63.55;98331.47;5074362;28;20197;-68
2023/04/12 03:59:27;;;;;;;6.27;5.77;;;;;;;11.83;63.46;98326.00;5073371;28;20629;-67
2023/04/12 04:01:54;;;;;;;6.63;6.13;;;;;;;11.83;63.64;98318.84;5073168;28;20704;-68
2023/04/12 04:04:22;;;;;;;7.50;7.03;;;;;;;11.77;64.05;98313.66;5073072;28;20198;-68
2023/04/12 04:06:53;;;;;;;6.23;5.83;;;;;;;11.71;65.41;98336.66;5073146;28;20250;-68
2023/04/12 04:09:20;;;;;;;7.53;6.90;;;;;;;11.74;65.83;98335.41;5073728;28;20225;-68
2023/04/12 04:11:50;;;;;;;9.37;7.23;;;;;;;11.67;66.53;98324.88;5073905;28;20334;-68
2023/04/12 04:14:17;;;;;;;24.07;9.03;;;;;;;11.72;67.13;98340.94;5073167;28;20726;-68
2023/04/12 04:16:44;;;;;;;43.07;9.97;;;;;;;11.63;67.83;98339.66;5072243;28;20207;-68
2023/04/12 04:19:11;;;;;;;8.63;7.57;;;;;;;11.61;68.33;98341.78;5072547;28;20736;-68
2023/04/12 04:21:39;;;;;;;50.10;10.93;;;;;;;11.63;68.03;98345.00;5071909;28;20255;-68
2023/04/12 04:24:10;;;;;;;8.27;6.77;;;;;;;11.63;67.54;98338.88;5073770;28;20277;-68
2023/04/12 04:26:38;;;;;;;7.63;7.03;;;;;;;11.70;67.08;98345.69;5073254;28;20226;-68
2023/04/12 04:29:05;;;;;;;7.13;6.63;;;;;;;11.75;66.63;98348.47;5072827;28;20197;-67
2023/04/12 04:31:35;;;;;;;7.27;6.77;;;;;;;11.67;66.79;98351.47;5072579;28;20678;-67
2023/04/12 04:34:04;;;;;;;9.33;7.43;;;;;;;11.71;66.38;98352.63;5071946;28;20229;-68
2023/04/12 04:36:33;;;;;;;7.27;6.33;;;;;;;11.63;66.34;98350.31;5072694;28;20207;-67
2023/04/12 04:39:01;;;;;;;7.80;6.80;;;;;;;11.77;65.70;98365.03;5072727;28;20196;-68
2023/04/12 04:41:33;;;;;;;7.83;7.03;;;;;;;11.80;65.17;98340.59;5072627;28;20200;-68
2023/04/12 04:44:03;;;;;;;9.70;6.93;;;;;;;12.06;65.01;98365.94;5072445;28;20200;-68
2023/04/12 04:46:30;;;;;;;7.87;7.17;;;;;;;12.03;64.67;98342.44;5072637;28;20653;-67
2023/04/12 04:48:58;;;;;;;9.57;7.43;;;;;;;12.16;64.33;98366.97;5073670;28;20194;-67
2023/04/12 04:51:26;;;;;;;12.33;7.97;;;;;;;12.22;63.85;98355.41;5070768;28;20194;-67
2023/04/12 04:53:53;;;;;;;10.43;7.40;;;;;;;12.27;63.98;98357.34;5072014;28;20204;-67
2023/04/12 04:56:21;;;;;;;8.53;7.50;;;;;;;12.36;63.79;98370.06;5072191;28;20626;-67
2023/04/12 04:58:50;;;;;;;10.93;7.90;;;;;;;12.42;63.53;98363.00;5072454;28;20198;-66
2023/04/12 05:01:17;;;;;;;15.17;8.70;;;;;;;12.47;63.39;98369.22;5072588;28;20202;-66
2023/04/12 05:03:44;;;;;;;8.07;7.27;;;;;;;12.67;63.18;98366.16;5072641;28;20210;-67
2023/04/12 05:06:11;;;;;;;8.27;7.30;;;;;;;12.74;62.70;98364.97;5072008;28;20271;-67
2023/04/12 05:08:40;;;;;;;8.53;7.93;;;;;;;12.85;62.33;98364.13;5071847;28;20193;-67
2023/04/12 05:11:10;;;;;;;8.30;7.50;;;;;;;12.98;62.35;98365.75;5072939;28;20205;-68
2023/04/12 05:13:38;;;;;;;7.93;7.27;;;;;;;12.99;62.15;98362.03;5070231;28;20603;-68
2023/04/12 05:16:10;;;;;;;8.50;7.70;;;;;;;13.09;62.32;98365.69;5071796;28;20237;-68
2023/04/12 05:18:37;;;;;;;11.23;8.03;;;;;;;13.23;61.63;98359.00;5072087;28;20207;-68
2023/04/12 05:21:04;;;;;;;8.80;8.00;;;;;;;13.32;61.04;98349.53;5072426;28;20206;-68
2023/04/12 05:23:35;;;;;;;10.93;8.20;;;;;;;13.60;60.65;98370.81;5071697;28;20638;-68
2023/04/12 05:26:03;;;;;;;8.90;7.87;;;;;;;13.79;60.45;98366.88;5072193;28;20287;-69
2023/04/12 05:28:31;;;;;;;14.93;8.60;;;;;;;13.86;60.31;98383.53;5071554;28;20657;-68
2023/04/12 05:31:01;;;;;;;42.50;11.17;;;;;;;13.91;60.23;98378.25;5071948;28;20219;-68
2023/04/12 05:33:30;;;;;;;11.63;8.40;;;;;;;13.84;60.94;98382.94;5066185;28;20278;-68
2023/04/12 05:35:57;;;;;;;13.57;8.50;;;;;;;13.87;61.48;98379.81;5071287;28;20188;-68
2023/04/12 05:38:27;;;;;;;16.83;10.40;;;;;;;13.94;60.96;98383.13;5071422;28;20561;-68
2023/04/12 05:40:57;;;;;;;10.27;8.77;;;;;;;14.03;61.35;98384.31;5071794;28;20187;-67
2023/04/12 05:43:26;;;;;;;12.50;9.43;;;;;;;13.96;61.80;98385.53;5070601;28;20722;-68
2023/04/12 05:45:52;;;;;;;10.20;9.30;;;;;;;13.90;62.05;98386.50;5074150;28;20677;-67
2023/04/12 05:48:19;;;;;;;13.20;9.20;;;;;;;13.95;62.07;98390.06;5075740;28;20195;-67
2023/04/12 05:50:52;;;;;;;13.17;10.63;;;;;;;13.90;62.03;98371.31;5075739;28;20203;-68
2023/04/12 05:53:23;;;;;;;13.43;9.80;;;;;;;13.93;62.09;98394.03;5074082;28;20307;-67
2023/04/12 05:55:54;;;;;;;15.57;9.53;;;;;;;14.02;62.26;98384.56;5076384;28;20243;-67
2023/04/12 05:58:32;;;;;;;10.30;9.43;;;;;;;14.06;62.28;98383.84;5073639;28;20204;-68
2023/04/12 06:01:00;;;;;;;13.27;11.83;;;;;;;14.17;62.31;98387.47;5075512;28;20188;-68
2023/04/12 06:03:28;;;;;;;11.77;10.57;;;;;;;14.51;60.62;98379.16;5075474;28;20231;-68
2023/04/12 06:06:05;;;;;;;13.10;11.10;;;;;;;14.94;59.65;98379.13;5076199;28;20192;-68
2023/04/12 06:08:33;;;;;;;19.87;11.57;;;;;;;15.21;58.14;98389.84;5075497;28;20180;-68
2023/04/12 06:11:00;;;;;;;12.23;9.90;;;;;;;15.22;58.07;98386.09;5075033;28;20192;-69
2023/04/12 06:13:27;;;;;;;34.27;11.80;;;;;;;15.08;58.38;98388.34;5075888;28;20247;-68
2023/04/12 06:15:55;;;;;;;13.17;10.53;;;;;;;14.97;58.92;98378.63;5073801;28;20599;-68
2023/04/12 06:18:21;;;;;;;17.10;10.77;;;;;;;14.93;59.33;98388.19;5075359;28;20203;-69
2023/04/12 06:20:50;;;;;;;23.27;10.77;;;;;;;14.92;59.15;98381.25;5073266;28;20254;-69
2023/04/12 06:23:18;;;;;;;19.50;12.20;;;;;;;15.14;58.56;98391.88;5074732;28;20663;-68
2023/04/12 06:25:47;;;;;;;14.20;10.80;;;;;;;15.04;58.68;98389.13;5075934;28;20279;-68
2023/04/12 06:28:14;;;;;;;11.50;10.50;;;;;;;15.01;59.32;98389.63;5075234;28;20242;-69
2023/04/12 06:30:42;;;;;;;20.20;11.53;;;;;;;14.87;59.67;98393.75;5074872;28;20192;-68
2023/04/12 06:33:21;;;;;;;17.23;11.47;;;;;;;14.86;59.86;98392.94;5075485;28;20718;-68
2023/04/12 06:35:48;;;;;;;12.37;11.07;;;;;;;14.87;59.94;98394.53;5075968;28;20188;-70
2023/04/12 06:38:19;;;;;;;15.77;11.30;;;;;;;14.83;60.64;98404.13;5073504;28;20192;-68
2023/04/12 06:40:48;;;;;;;15.40;11.37;;;;;;;14.76;61.08;98403.50;5075486;28;20188;-69
2023/04/12 06:43:18;;;;;;;35.40;13.10;;;;;;;14.87;60.65;98405.22;5074004;28;20202;-69
2023/04/12 06:45:48;;;;;;;14.70;11.40;;;;;;;14.92;60.35;98397.28;5074574;28;20192;-69
2023/04/12 06:48:15;;;;;;;14.37;10.90;;;;;;;15.05;59.78;98407.59;5075336;28;20219;-70
2023/04/12 06:50:56;;;;;;;41.63;12.30;;;;;;;15.08;59.34;98401.72;5075076;28;20282;-69
2023/04/12 06:53:23;;;;;;;13.67;9.90;;;;;;;15.10;57.92;98410.31;5074160;28;20227;-68
2023/04/12 06:56:02;;;;;;;12.03;8.57;;;;;;;15.06;57.48;98414.56;5073455;28;20253;-68
2023/04/12 06:58:33;;;;;;;11.90;8.83;;;;;;;15.34;56.36;98417.03;5073594;28;20206;-68
2023/04/12 07:01:08;;;;;;;15.87;7.97;;;;;;;15.40;55.06;98421.34;5075083;28;20744;-69
2023/04/12 07:03:36;;;;;;;10.07;7.73;;;;;;;15.41;54.00;98417.63;5074272;28;20730;-69
2023/04/12 07:06:03;;;;;;;16.20;7.93;;;;;;;15.57;54.34;98419.38;5075538;28;20200;-68
2023/04/12 07:08:32;;;;;;;9.23;7.93;;;;;;;15.80;51.83;98427.09;5074446;28;20661;-68
2023/04/12 07:11:00;;;;;;;29.27;8.10;;;;;;;15.86;51.12;98415.34;5073458;28;20196;-69
2023/04/12 07:13:30;;;;;;;8.93;6.47;;;;;;;16.10;49.41;98420.34;5074096;28;20277;-68
2023/04/12 07:15:59;;;;;;;12.70;6.30;;;;;;;16.23;47.42;98414.53;5072629;28;20249;-68
2023/04/12 07:18:30;;;;;;;16.67;5.50;;;;;;;16.32;45.73;98410.31;5074591;28;20229;-68
2023/04/12 07:20:56;;;;;;;11.63;4.40;;;;;;;16.47;43.92;98419.28;5074433;28;20657;-69
2023/04/12 07:23:24;;;;;;;9.40;4.20;;;;;;;16.60;42.41;98415.31;5073722;28;20196;-68
2023/04/12 07:25:51;;;;;;;23.97;5.10;;;;;;;16.52;41.97;98418.50;5074014;28;20224;-71
2023/04/12 07:28:19;;;;;;;19.13;3.50;;;;;;;16.51;40.95;98419.56;5074025;28;20253;-68
2023/04/12 07:30:46;;;;;;;21.40;3.80;;;;;;;16.62;40.87;98416.66;5073346;28;20594;-69
2023/04/12 07:33:12;;;;;;;4.70;2.77;;;;;;;16.71;40.52;98415.13;5073854;28;20227;-71
2023/04/12 07:35:41;;;;;;;5.90;2.30;;;;;;;17.03;39.85;98420.34;5074041;28;20202;-68
2023/04/12 07:38:09;;;;;;;10.50;2.10;;;;;;;17.45;38.43;98426.41;5073825;28;20192;-70
2023/04/12 07:40:38;;;;;;;15.43;2.20;;;;;;;18.10;37.56;98438.00;5072277;28;20192;-70
2023/04/12 07:43:05;;;;;;;3.10;1.90;;;;;;;18.39;36.50;98417.56;5073801;28;20213;-71
2023/04/12 07:45:37;;;;;;;12.63;1.90;;;;;;;18.76;35.80;98419.88;5074455;28;20218;-70
2023/04/12 07:48:07;;;;;;;5.37;1.50;;;;;;;19.01;34.35;98411.69;5073869;28;20242;-70
2023/04/12 07:50:50;;;;;;;13.03;1.93;;;;;;;19.17;33.80;98415.94;5073806;28;20194;-70
2023/04/12 07:53:19;;;;;;;5.87;1.60;;;;;;;19.54;32.94;98400.13;5074440;28;20261;-71
2023/04/12 07:55:46;;;;;;;7.57;2.17;;;;;;;19.72;32.24;98396.75;5073232;28;20254;-71
2023/04/12 07:58:16;;;;;;;6.43;2.67;;;;;;;19.65;32.13;98402.44;5073583;28;20196;-70
2023/04/12 08:00:45;;;;;;;18.33;2.87;;;;;;;20.01;32.24;98389.50;5073995;28;20204;-71
2023/04/12 08:03:15;;;;;;;4.90;2.20;;;;;;;20.23;32.30;98381.78;5073152;28;20278;-71
2023/04/12 08:05:44;;;;;;;4.17;2.30;;;;;;;20.45;32.18;98374.78;5073262;28;20282;-72
2023/04/12 08:08:11;;;;;;;3.97;3.30;;;;;;;20.51;32.65;98372.84;5071668;28;20203;-70
2023/04/12 08:10:40;;;;;;;13.93;5.00;;;;;;;20.28;32.98;98384.41;5072756;28;20199;-70
2023/04/12 08:13:14;;;;;;;13.80;3.93;;;;;;;20.09;33.82;98370.03;5071744;28;20216;-71
2023/04/12 08:15:43;;;;;;;6.53;4.33;;;;;;;19.99;34.00;98380.91;5073296;28;20253;-70
2023/04/12 08:18:14;;;;;;;41.07;5.37;;;;;;;19.70;34.63;98369.28;5072673;28;20248;-70
2023/04/12 08:20:48;;;;;;;45.70;6.30;;;;;;;19.14;35.05;98363.44;5072631;28;20576;-72
2023/04/12 08:23:37;;;;;;;18.67;4.63;;;;;;;18.72;36.19;98376.59;5038391;28;20202;-72
2023/04/12 08:26:06;;;;;;;7.70;3.90;;;;;;;18.79;36.33;98365.53;5050834;28;20202;-71
2023/04/12 08:28:39;;;;;;;24.07;5.10;;;;;;;18.52;36.44;98359.69;5032823;28;20196;-70
2023/04/12 08:31:29;;;;;;;10.53;4.73;;;;;;;18.13;36.86;98351.44;5030841;28;20194;-70
2023/04/12 08:34:02;;;;;;;7.10;3.90;;;;;;;17.79;37.18;98363.03;5014058;28;20316;-70
2023/04/12 08:36:30;;;;;;;125.83;13.07;;;;;;;17.91;37.33;98368.94;5030851;28;20200;-70
2023/04/12 08:39:02;;;;;;;12.63;3.60;;;;;;;18.01;36.67;98352.81;5014252;28;20201;-69
2023/04/12 08:41:33;;;;;;;7.37;3.50;;;;;;;17.38;37.28;98356.00;5030963;28;20235;-69
2023/04/12 08:44:04;;;;;;;17.60;4.73;;;;;;;17.75;37.50;98343.16;5014653;28;20227;-69
2023/04/12 08:46:31;;;;;;;28.07;4.87;;;;;;;17.74;37.90;98352.28;5013829;28;20197;-69
2023/04/12 08:49:05;;;;;;;4.00;3.57;;;;;;;18.17;36.93;98347.13;5035549;28;20194;-70
2023/04/12 08:51:36;;;;;;;5.53;3.40;;;;;;;18.78;36.12;98350.47;5033608;28;20201;-70
2023/04/12 08:54:05;;;;;;;10.13;4.00;;;;;;;18.95;35.45;98342.84;5049955;28;20763;-69
2023/04/12 08:56:35;;;;;;;9.77;3.27;;;;;;;18.86;35.42;98355.25;5033593;28;20196;-69
2023/04/12 08:59:11;;;;;;;75.47;8.53;;;;;;;18.64;35.60;98350.25;5050113;28;20623;-70
2023/04/12 09:01:45;;;;;;;8.00;3.27;;;;;;;18.66;36.28;98349.97;5065887;28;20229;-69
2023/04/12 09:04:32;;;;;;;3.10;2.80;;;;;;;18.71;36.81;98352.66;5072621;28;20188;-70
2023/04/12 09:07:01;;;;;;;39.50;4.83;;;;;;;17.96;39.03;98350.13;5070976;28;20195;-69
2023/04/12 09:09:42;;;;;;;7.77;3.60;;;;;;;17.86;39.54;98328.66;5069712;28;20286;-69
2023/04/12 09:12:21;;;;;;;9.23;2.50;;;;;;;18.19;38.10;98344.19;5072187;28;20265;-70
2023/04/12 09:14:52;;;;;;;70.37;7.10;;;;;;;18.37;37.69;98351.66;5070715;28;20228;-69
2023/04/12 09:17:23;;;;;;;21.67;3.47;;;;;;;18.07;38.75;98340.97;5072180;28;20184;-70
2023/04/12 09:19:55;;;;;;;5.80;3.33;;;;;;;18.09;39.75;98349.59;5071364;28;20199;-69
2023/04/12 09:22:43;;;;;;;8.83;3.50;;;;;;;17.89;39.17;98339.66;5072100;28;20264;-69
2023/04/12 09:25:10;;;;;;;21.10;4.23;;;;;;;17.45;39.84;98333.25;5071832;28;20278;-69
2023/04/12 09:27:49;;;;;;;9.83;3.10;;;;;;;16.81;40.91;98337.38;5071685;28;20206;-69
2023/04/12 09:30:19;;;;;;;10.43;3.73;;;;;;;16.76;42.04;98333.88;5071994;28;20246;-70
2023/04/12 09:32:49;;;;;;;8.87;2.80;;;;;;;16.91;41.12;98325.88;5070444;28;20234;-70
2023/04/12 09:35:33;;;;;;;7.57;2.40;;;;;;;17.45;40.85;98321.69;5071811;28;20201;-70
2023/04/12 09:38:07;;;;;;;12.67;3.37;;;;;;;17.43;39.73;98310.44;5071228;28;20621;-69
2023/04/12 09:40:36;;;;;;;14.80;4.00;;;;;;;17.60;38.71;98319.03;5072102;28;20257;-69
2023/04/12 09:43:04;;;;;;;6.30;2.60;;;;;;;17.72;38.64;98303.44;5071987;28;20196;-69
2023/04/12 09:45:33;;;;;;;39.10;4.17;;;;;;;17.91;37.78;98315.19;5072345;28;20653;-69
2023/04/12 09:48:01;;;;;;;4.10;2.47;;;;;;;17.91;37.65;98310.66;5072417;28;20202;-69
2023/04/12 09:50:32;;;;;;;6.97;2.67;;;;;;;17.79;38.31;98312.81;5070644;28;20204;-69
2023/04/12 09:53:00;;;;;;;6.30;2.80;;;;;;;17.68;37.41;98283.56;5070674;28;20198;-69
2023/04/12 09:55:29;;;;;;;6.30;2.50;;;;;;;18.03;36.93;98292.34;5071669;28;20209;-69
2023/04/12 09:57:59;;;;;;;10.73;3.17;;;;;;;18.37;36.37;98281.75;5070197;28;20199;-69
2023/04/12 10:00:28;;;;;;;9.43;2.97;;;;;;;18.70;35.33;98275.72;5071348;28;20274;-70
2023/04/12 10:02:56;;;;;;;6.90;2.60;;;;;;;19.06;33.64;98288.66;5070135;28;20196;-70
2023/04/12 10:05:27;;;;;;;6.43;2.60;;;;;;;19.63;31.57;98271.81;5071365;28;20194;-70
2023/04/12 10:07:58;;;;;;;2.97;2.77;;;;;;;19.98;30.95;98276.84;5071459;28;20202;-70
2023/04/12 10:10:33;;;;;;;11.27;2.80;;;;;;;20.19;30.76;98284.47;5069933;28;20261;-71
2023/04/12 10:13:02;;;;;;;9.73;3.13;;;;;;;20.19;29.88;98267.47;5072459;28;20184;-70
2023/04/12 10:15:32;;;;;;;21.57;3.13;;;;;;;20.44;29.21;98275.28;5072020;28;20202;-71
2023/04/12 10:18:00;;;;;;;7.27;2.10;;;;;;;20.24;28.54;98273.63;5071513;28;20196;-71
2023/04/12 10:20:32;;;;;;;4.10;2.07;;;;;;;20.51;28.90;98275.72;5071139;28;20279;-71
2023/04/12 10:23:09;;;;;;;19.57;9.10;;;;;;;20.57;28.41;98282.66;5071321;28;20675;-71
2023/04/12 10:25:40;;;;;;;4.33;2.27;;;;;;;20.84;27.95;98277.44;5071959;28;20210;-70
2023/04/12 10:28:16;;;;;;;6.63;2.00;;;;;;;20.73;28.24;98270.56;5070297;28;20246;-71
2023/04/12 10:30:47;;;;;;;3.37;2.17;;;;;;;20.25;29.04;98282.50;5072095;28;20278;-71
2023/04/12 10:33:19;;;;;;;12.13;2.03;;;;;;;20.09;28.72;98272.97;5074398;28;20293;-71
2023/04/12 10:35:53;;;;;;;2.53;2.10;;;;;;;19.93;29.24;98269.63;5074517;28;20669;-71
2023/04/12 10:38:25;;;;;;;1.93;1.80;;;;;;;19.91;29.08;98260.22;5074785;28;20202;-71
2023/04/12 10:41:12;;;;;;;2.37;2.17;;;;;;;20.09;28.71;98262.19;5074986;28;20200;-71
2023/04/12 10:43:40;;;;;;;9.10;2.57;;;;;;;20.22;28.41;98258.81;5074656;28;20237;-70
2023/04/12 10:46:08;;;;;;;6.70;2.73;;;;;;;20.08;28.25;98255.97;5074624;28;20566;-71
2023/04/12 10:48:37;;;;;;;52.07;6.07;;;;;;;20.01;28.25;98266.28;5074945;28;20200;-71
2023/04/12 10:51:22;;;;;;;5.30;2.23;;;;;;;19.75;28.82;98259.56;5074624;28;20192;-70
2023/04/12 10:53:52;;;;;;;3.13;2.00;;;;;;;19.31;28.86;98272.34;5074440;28;20238;-70
2023/04/12 10:56:40;;;;;;;14.37;2.23;;;;;;;19.06;28.52;98256.38;5073623;28;20640;-70
2023/04/12 10:59:10;;;;;;;17.60;6.23;;;;;;;19.44;29.22;98249.38;5073873;28;20647;-70
2023/04/12 11:01:38;;;;;;;3.53;2.03;;;;;;;19.42;29.13;98278.47;5073119;28;20192;-70
2023/04/12 11:04:24;;;;;;;3.73;2.17;;;;;;;19.27;30.46;98275.88;5074389;28;20213;-70
2023/04/12 11:07:00;;;;;;;29.27;3.33;;;;;;;19.20;30.17;98264.63;5074813;28;20553;-70
2023/04/12 11:09:39;;;;;;;23.83;3.30;;;;;;;18.83;31.46;98280.47;5073316;28;20208;-71
2023/04/12 11:12:14;;;;;;;7.97;2.77;;;;;;;18.11;33.98;98288.28;5073945;28;20196;-70
2023/04/12 11:14:46;;;;;;;12.20;2.20;;;;;;;17.48;35.12;98283.56;5072728;28;20296;-70
2023/04/12 11:17:26;;;;;;;4.83;2.20;;;;;;;17.67;34.87;98277.38;5074170;28;20203;-69
2023/04/12 11:20:00;;;;;;;48.53;5.43;;;;;;;17.79;34.58;98283.25;5070702;28;20188;-69
2023/04/12 11:22:30;;;;;;;3.40;1.63;;;;;;;17.54;33.06;98287.84;5074669;28;20256;-70
2023/04/12 11:25:01;;;;;;;3.67;1.90;;;;;;;17.22;32.88;98295.34;5074079;28;20201;-70
2023/04/12 11:27:30;;;;;;;3.83;1.80;;;;;;;17.10;33.57;98292.91;5072805;28;20283;-70
2023/04/12 11:30:02;;;;;;;9.00;2.57;;;;;;;17.08;33.63;98288.91;5074094;28;20278;-69
2023/04/12 11:32:34;;;;;;;31.67;4.47;;;;;;;17.19;34.59;98287.84;5074056;28;20314;-70
2023/04/12 11:35:02;;;;;;;5.50;1.73;;;;;;;17.46;35.33;98269.59;5073445;28;20641;-70
2023/04/12 11:37:31;;;;;;;5.53;2.47;;;;;;;17.80;35.26;98273.34;5074043;28;20295;-70
2023/04/12 11:39:59;;;;;;;8.97;2.03;;;;;;;18.16;34.33;98269.44;5073764;28;20546;-70
2023/04/12 11:42:27;;;;;;;6.10;2.30;;;;;;;18.68;31.61;98262.53;5072946;28;20242;-70
2023/04/12 11:44:55;;;;;;;13.17;1.60;;;;;;;19.17;29.98;98249.03;5072896;28;20246;-70
2023/04/12 11:47:23;;;;;;;5.00;1.50;;;;;;;19.39;28.77;98260.16;5073147;28;20196;-71
2023/04/12 11:49:52;;;;;;;2.90;2.00;;;;;;;19.38;29.79;98262.06;5074440;28;20189;-71
2023/04/12 11:52:21;;;;;;;10.93;2.37;;;;;;;19.48;30.02;98255.81;5073578;28;20204;-71
2023/04/12 11:54:55;;;;;;;6.17;1.63;;;;;;;19.52;29.41;98251.47;5072174;28;20224;-71
2023/04/12 11:57:23;;;;;;;3.17;1.60;;;;;;;18.93;30.00;98272.34;5074923;28;20194;-71
2023/04/12 11:59:55;;;;;;;9.97;2.00;;;;;;;18.92;30.36;98262.66;5073089;28;20203;-70
2023/04/12 12:02:22;;;;;;;5.27;1.40;;;;;;;18.43;30.62;98267.25;5073271;28;20207;-69